sensor_id;sensor_type;location;lat;lon;timestamp;pressure;altitude;pressure_sealevel;temperature;humidity
84696;BME280;74913;40.204;44.532;2024-01-16T00:01:12;88558.66;;;0.20;45.94
84696;BME280;74913;40.204;44.532;2024-01-16T00:03:39;88565.84;;;0.19;46.15
84696;BME280;74913;40.204;44.532;2024-01-16T00:06:05;88566.28;;;0.18;45.80
84696;BME280;74913;40.204;44.532;2024-01-16T00:08:32;88569.97;;;0.20;46.18
84696;BME280;74913;40.204;44.532;2024-01-16T00:10:57;88572.19;;;0.22;45.90
84696;BME280;74913;40.204;44.532;2024-01-16T00:13:23;88567.47;;;0.17;45.99
84696;BME280;74913;40.204;44.532;2024-01-16T00:15:49;88572.75;;;0.26;46.73
84696;BME280;74913;40.204;44.532;2024-01-16T00:18:15;88569.97;;;0.38;46.74
84696;BME280;74913;40.204;44.532;2024-01-16T00:20:40;88539.53;;;0.43;46.81
84696;BME280;74913;40.204;44.532;2024-01-16T00:23:06;88545.28;;;0.59;46.33
84696;BME280;74913;40.204;44.532;2024-01-16T00:25:32;88551.13;;;0.63;46.92
84696;BME280;74913;40.204;44.532;2024-01-16T00:27:57;88551.13;;;0.63;47.27
84696;BME280;74913;40.204;44.532;2024-01-16T00:30:23;88545.53;;;0.71;46.71
84696;BME280;74913;40.204;44.532;2024-01-16T00:32:48;88534.94;;;0.71;46.66
84696;BME280;74913;40.204;44.532;2024-01-16T00:35:14;88527.91;;;0.68;47.26
84696;BME280;74913;40.204;44.532;2024-01-16T00:37:40;88529.66;;;0.61;46.61
84696;BME280;74913;40.204;44.532;2024-01-16T00:40:06;88530.25;;;0.65;47.18
84696;BME280;74913;40.204;44.532;2024-01-16T00:42:34;88527.00;;;0.71;46.85
84696;BME280;74913;40.204;44.532;2024-01-16T00:45:00;88517.44;;;0.73;46.99
84696;BME280;74913;40.204;44.532;2024-01-16T00:47:26;88516.72;;;0.73;47.08
84696;BME280;74913;40.204;44.532;2024-01-16T00:49:52;88513.34;;;0.72;47.29
84696;BME280;74913;40.204;44.532;2024-01-16T00:52:18;88508.34;;;0.65;47.03
84696;BME280;74913;40.204;44.532;2024-01-16T00:54:44;88522.31;;;0.75;46.99
84696;BME280;74913;40.204;44.532;2024-01-16T00:57:11;88525.97;;;0.77;47.34
84696;BME280;74913;40.204;44.532;2024-01-16T00:59:37;88533.16;;;0.86;47.03
84696;BME280;74913;40.204;44.532;2024-01-16T01:02:03;88521.25;;;0.81;47.17
84696;BME280;74913;40.204;44.532;2024-01-16T01:04:29;88530.78;;;0.88;47.50
84696;BME280;74913;40.204;44.532;2024-01-16T01:06:55;88530.50;;;0.86;47.70
84696;BME280;74913;40.204;44.532;2024-01-16T01:09:20;88524.78;;;0.87;48.40
84696;BME280;74913;40.204;44.532;2024-01-16T01:11:46;88528.13;;;0.88;48.35
84696;BME280;74913;40.204;44.532;2024-01-16T01:14:12;88530.94;;;0.93;47.92
84696;BME280;74913;40.204;44.532;2024-01-16T01:16:37;88504.75;;;0.86;48.58
84696;BME280;74913;40.204;44.532;2024-01-16T01:19:03;88503.88;;;0.89;48.15
84696;BME280;74913;40.204;44.532;2024-01-16T01:21:29;88514.56;;;1.04;47.99
84696;BME280;74913;40.204;44.532;2024-01-16T01:23:54;88501.31;;;1.04;48.39
84696;BME280;74913;40.204;44.532;2024-01-16T01:26:20;88499.69;;;1.06;48.17
84696;BME280;74913;40.204;44.532;2024-01-16T01:28:46;88497.94;;;1.03;47.95
84696;BME280;74913;40.204;44.532;2024-01-16T01:31:12;88498.13;;;1.00;47.80
84696;BME280;74913;40.204;44.532;2024-01-16T01:33:38;88484.28;;;0.96;47.74
84696;BME280;74913;40.204;44.532;2024-01-16T01:36:04;88512.25;;;0.97;47.93
84696;BME280;74913;40.204;44.532;2024-01-16T01:38:30;88528.13;;;0.97;47.95
84696;BME280;74913;40.204;44.532;2024-01-16T01:40:56;88530.75;;;1.06;48.20
84696;BME280;74913;40.204;44.532;2024-01-16T01:43:25;88531.91;;;1.14;47.88
84696;BME280;74913;40.204;44.532;2024-01-16T01:46:11;88533.97;;;1.19;47.84
84696;BME280;74913;40.204;44.532;2024-01-16T01:48:41;88545.88;;;1.23;47.84
84696;BME280;74913;40.204;44.532;2024-01-16T01:51:12;88534.09;;;1.24;47.98
84696;BME280;74913;40.204;44.532;2024-01-16T01:53:38;88530.69;;;1.24;47.96
84696;BME280;74913;40.204;44.532;2024-01-16T01:56:08;88503.28;;;0.94;47.75
84696;BME280;74913;40.204;44.532;2024-01-16T01:58:34;88529.31;;;1.05;47.95
84696;BME280;74913;40.204;44.532;2024-01-16T02:01:02;88505.16;;;1.03;48.38
84696;BME280;74913;40.204;44.532;2024-01-16T02:03:29;88514.56;;;1.04;47.75
84696;BME280;74913;40.204;44.532;2024-01-16T02:05:58;88509.72;;;1.02;48.42
84696;BME280;74913;40.204;44.532;2024-01-16T02:08:24;88517.22;;;1.04;48.19
84696;BME280;74913;40.204;44.532;2024-01-16T02:10:50;88524.00;;;1.05;48.74
84696;BME280;74913;40.204;44.532;2024-01-16T02:13:16;88517.69;;;1.02;48.75
84696;BME280;74913;40.204;44.532;2024-01-16T02:15:46;88515.19;;;0.99;49.59
84696;BME280;74913;40.204;44.532;2024-01-16T02:18:11;88499.91;;;0.85;49.90
84696;BME280;74913;40.204;44.532;2024-01-16T02:20:37;88498.00;;;0.76;50.64
84696;BME280;74913;40.204;44.532;2024-01-16T02:23:03;88490.84;;;0.68;50.87
84696;BME280;74913;40.204;44.532;2024-01-16T02:25:30;88481.72;;;0.59;51.45
84696;BME280;74913;40.204;44.532;2024-01-16T02:27:55;88480.13;;;0.53;51.82
84696;BME280;74913;40.204;44.532;2024-01-16T02:30:21;88491.44;;;0.53;52.07
84696;BME280;74913;40.204;44.532;2024-01-16T02:32:47;88494.38;;;0.64;51.49
84696;BME280;74913;40.204;44.532;2024-01-16T02:35:13;88488.75;;;0.72;51.61
84696;BME280;74913;40.204;44.532;2024-01-16T02:37:38;88477.28;;;0.75;51.69
84696;BME280;74913;40.204;44.532;2024-01-16T02:40:04;88473.63;;;0.72;51.57
84696;BME280;74913;40.204;44.532;2024-01-16T02:42:32;88459.97;;;0.64;52.11
84696;BME280;74913;40.204;44.532;2024-01-16T02:44:58;88460.97;;;0.58;51.71
84696;BME280;74913;40.204;44.532;2024-01-16T02:47:23;88457.03;;;0.62;51.11
84696;BME280;74913;40.204;44.532;2024-01-16T02:49:50;88442.59;;;0.63;50.65
84696;BME280;74913;40.204;44.532;2024-01-16T02:52:15;88434.22;;;0.65;50.25
84696;BME280;74913;40.204;44.532;2024-01-16T02:54:41;88451.13;;;0.68;49.97
84696;BME280;74913;40.204;44.532;2024-01-16T02:57:07;88463.16;;;0.69;50.12
84696;BME280;74913;40.204;44.532;2024-01-16T02:59:32;88477.44;;;0.80;49.64
84696;BME280;74913;40.204;44.532;2024-01-16T03:01:58;88470.75;;;0.94;49.69
84696;BME280;74913;40.204;44.532;2024-01-16T03:04:23;88458.19;;;1.03;49.01
84696;BME280;74913;40.204;44.532;2024-01-16T03:06:49;88473.66;;;1.05;48.98
84696;BME280;74913;40.204;44.532;2024-01-16T03:09:15;88484.41;;;1.01;49.16
84696;BME280;74913;40.204;44.532;2024-01-16T03:11:41;88478.66;;;1.03;49.14
84696;BME280;74913;40.204;44.532;2024-01-16T03:14:07;88479.06;;;1.10;48.55
84696;BME280;74913;40.204;44.532;2024-01-16T03:16:32;88483.66;;;1.10;49.08
84696;BME280;74913;40.204;44.532;2024-01-16T03:18:58;88472.88;;;1.13;48.75
84696;BME280;74913;40.204;44.532;2024-01-16T03:21:24;88473.56;;;1.23;49.07
84696;BME280;74913;40.204;44.532;2024-01-16T03:23:50;88473.53;;;1.32;48.92
84696;BME280;74913;40.204;44.532;2024-01-16T03:26:16;88463.78;;;1.38;48.27
84696;BME280;74913;40.204;44.532;2024-01-16T03:28:42;88462.28;;;1.46;48.62
84696;BME280;74913;40.204;44.532;2024-01-16T03:31:08;88461.38;;;1.49;48.45
84696;BME280;74913;40.204;44.532;2024-01-16T03:33:34;88458.13;;;1.54;48.88
84696;BME280;74913;40.204;44.532;2024-01-16T03:36:00;88465.44;;;1.59;48.16
84696;BME280;74913;40.204;44.532;2024-01-16T03:38:27;88465.09;;;1.66;48.41
84696;BME280;74913;40.204;44.532;2024-01-16T03:40:52;88468.63;;;1.72;48.44
84696;BME280;74913;40.204;44.532;2024-01-16T03:43:18;88474.19;;;1.74;48.52
84696;BME280;74913;40.204;44.532;2024-01-16T03:45:44;88477.41;;;1.78;48.94
84696;BME280;74913;40.204;44.532;2024-01-16T03:48:10;88470.66;;;1.77;48.70
84696;BME280;74913;40.204;44.532;2024-01-16T03:50:35;88481.53;;;1.79;48.82
84696;BME280;74913;40.204;44.532;2024-01-16T03:53:02;88487.13;;;1.81;49.02
84696;BME280;74913;40.204;44.532;2024-01-16T03:55:29;88493.03;;;1.76;48.98
84696;BME280;74913;40.204;44.532;2024-01-16T03:57:56;88487.63;;;1.71;49.15
84696;BME280;74913;40.204;44.532;2024-01-16T04:00:22;88501.50;;;1.66;49.20
84696;BME280;74913;40.204;44.532;2024-01-16T04:02:47;88501.69;;;1.62;49.70
84696;BME280;74913;40.204;44.532;2024-01-16T04:05:13;88490.50;;;1.58;49.86
84696;BME280;74913;40.204;44.532;2024-01-16T04:07:39;88493.53;;;1.66;49.76
84696;BME280;74913;40.204;44.532;2024-01-16T04:10:06;88492.38;;;1.67;49.53
84696;BME280;74913;40.204;44.532;2024-01-16T04:12:32;88480.69;;;1.73;49.67
84696;BME280;74913;40.204;44.532;2024-01-16T04:14:58;88475.38;;;1.73;49.20
84696;BME280;74913;40.204;44.532;2024-01-16T04:17:23;88476.84;;;1.74;49.37
84696;BME280;74913;40.204;44.532;2024-01-16T04:19:49;88471.00;;;1.70;49.13
84696;BME280;74913;40.204;44.532;2024-01-16T04:22:14;88474.97;;;1.66;49.42
84696;BME280;74913;40.204;44.532;2024-01-16T04:24:40;88489.25;;;1.68;49.73
84696;BME280;74913;40.204;44.532;2024-01-16T04:27:06;88485.56;;;1.75;49.69
84696;BME280;74913;40.204;44.532;2024-01-16T04:29:31;88484.19;;;1.79;49.52
84696;BME280;74913;40.204;44.532;2024-01-16T04:31:57;88481.25;;;1.77;49.71
84696;BME280;74913;40.204;44.532;2024-01-16T04:34:23;88485.94;;;1.82;49.55
84696;BME280;74913;40.204;44.532;2024-01-16T04:36:49;88492.69;;;1.83;49.46
84696;BME280;74913;40.204;44.532;2024-01-16T04:39:14;88495.06;;;1.81;49.70
84696;BME280;74913;40.204;44.532;2024-01-16T04:41:40;88512.00;;;1.84;49.57
84696;BME280;74913;40.204;44.532;2024-01-16T04:44:06;88512.75;;;1.84;49.66
84696;BME280;74913;40.204;44.532;2024-01-16T04:46:31;88496.84;;;1.84;49.94
84696;BME280;74913;40.204;44.532;2024-01-16T04:48:57;88509.34;;;1.84;50.22
84696;BME280;74913;40.204;44.532;2024-01-16T04:51:22;88512.16;;;1.80;50.14
84696;BME280;74913;40.204;44.532;2024-01-16T04:53:48;88495.69;;;1.76;50.45
84696;BME280;74913;40.204;44.532;2024-01-16T04:56:14;88521.66;;;1.72;50.51
84696;BME280;74913;40.204;44.532;2024-01-16T04:58:39;88524.03;;;1.70;50.40
84696;BME280;74913;40.204;44.532;2024-01-16T05:01:05;88503.59;;;1.62;50.50
84696;BME280;74913;40.204;44.532;2024-01-16T05:03:30;88507.31;;;1.55;50.88
84696;BME280;74913;40.204;44.532;2024-01-16T05:05:56;88498.09;;;1.42;51.06
84696;BME280;74913;40.204;44.532;2024-01-16T05:08:22;88506.66;;;1.37;52.14
84696;BME280;74913;40.204;44.532;2024-01-16T05:10:48;88505.19;;;1.36;51.85
84696;BME280;74913;40.204;44.532;2024-01-16T05:13:13;88506.50;;;1.40;51.94
84696;BME280;74913;40.204;44.532;2024-01-16T05:15:40;88510.00;;;1.46;51.85
84696;BME280;74913;40.204;44.532;2024-01-16T05:18:06;88490.53;;;1.49;51.85
84696;BME280;74913;40.204;44.532;2024-01-16T05:20:31;88501.69;;;1.62;51.50
84696;BME280;74913;40.204;44.532;2024-01-16T05:22:57;88506.66;;;1.69;51.68
84696;BME280;74913;40.204;44.532;2024-01-16T05:25:23;88507.38;;;1.70;51.24
84696;BME280;74913;40.204;44.532;2024-01-16T05:27:48;88506.97;;;1.62;51.16
84696;BME280;74913;40.204;44.532;2024-01-16T05:30:14;88510.44;;;1.77;51.65
84696;BME280;74913;40.204;44.532;2024-01-16T05:32:41;88514.50;;;1.87;51.45
84696;BME280;74913;40.204;44.532;2024-01-16T05:35:06;88519.91;;;1.93;51.23
84696;BME280;74913;40.204;44.532;2024-01-16T05:37:32;88492.47;;;1.96;51.46
84696;BME280;74913;40.204;44.532;2024-01-16T05:39:58;88509.19;;;1.87;51.32
84696;BME280;74913;40.204;44.532;2024-01-16T05:42:24;88521.31;;;1.79;51.88
84696;BME280;74913;40.204;44.532;2024-01-16T05:44:51;88503.94;;;1.78;52.55
84696;BME280;74913;40.204;44.532;2024-01-16T05:47:18;88504.28;;;1.71;52.51
84696;BME280;74913;40.204;44.532;2024-01-16T05:49:44;88513.59;;;1.67;52.81
84696;BME280;74913;40.204;44.532;2024-01-16T05:52:10;88498.41;;;1.67;52.85
84696;BME280;74913;40.204;44.532;2024-01-16T05:54:35;88502.41;;;1.63;52.92
84696;BME280;74913;40.204;44.532;2024-01-16T05:57:01;88522.31;;;1.58;53.04
84696;BME280;74913;40.204;44.532;2024-01-16T05:59:28;88499.66;;;1.57;53.46
84696;BME280;74913;40.204;44.532;2024-01-16T06:01:54;88510.78;;;1.70;53.25
84696;BME280;74913;40.204;44.532;2024-01-16T06:04:19;88519.28;;;1.74;53.26
84696;BME280;74913;40.204;44.532;2024-01-16T06:06:45;88517.78;;;1.82;52.94
84696;BME280;74913;40.204;44.532;2024-01-16T06:09:13;88515.91;;;1.98;53.55
84696;BME280;74913;40.204;44.532;2024-01-16T06:11:41;88524.03;;;2.18;53.01
84696;BME280;74913;40.204;44.532;2024-01-16T06:14:08;88527.19;;;2.31;52.43
84696;BME280;74913;40.204;44.532;2024-01-16T06:16:34;88526.00;;;2.32;52.61
84696;BME280;74913;40.204;44.532;2024-01-16T06:19:00;88525.72;;;2.30;52.47
84696;BME280;74913;40.204;44.532;2024-01-16T06:21:26;88544.03;;;2.28;52.24
84696;BME280;74913;40.204;44.532;2024-01-16T06:23:52;88539.28;;;2.32;52.22
84696;BME280;74913;40.204;44.532;2024-01-16T06:26:18;88533.63;;;2.39;52.43
84696;BME280;74913;40.204;44.532;2024-01-16T06:28:44;88525.59;;;2.48;51.96
84696;BME280;74913;40.204;44.532;2024-01-16T06:31:10;88527.81;;;2.64;51.83
84696;BME280;74913;40.204;44.532;2024-01-16T06:33:37;88523.63;;;2.72;51.61
84696;BME280;74913;40.204;44.532;2024-01-16T06:36:03;88522.97;;;2.77;51.49
84696;BME280;74913;40.204;44.532;2024-01-16T06:38:30;88511.44;;;2.80;51.28
84696;BME280;74913;40.204;44.532;2024-01-16T06:40:56;88503.00;;;2.82;51.23
84696;BME280;74913;40.204;44.532;2024-01-16T06:43:22;88509.16;;;2.88;51.16
84696;BME280;74913;40.204;44.532;2024-01-16T06:45:47;88521.97;;;2.89;50.86
84696;BME280;74913;40.204;44.532;2024-01-16T06:48:13;88513.91;;;2.98;50.92
84696;BME280;74913;40.204;44.532;2024-01-16T06:50:39;88517.41;;;3.04;50.57
84696;BME280;74913;40.204;44.532;2024-01-16T06:53:04;88515.84;;;3.12;50.82
84696;BME280;74913;40.204;44.532;2024-01-16T06:55:30;88516.66;;;3.18;50.54
84696;BME280;74913;40.204;44.532;2024-01-16T06:57:56;88519.25;;;3.28;50.28
84696;BME280;74913;40.204;44.532;2024-01-16T07:00:21;88511.16;;;3.37;50.34
84696;BME280;74913;40.204;44.532;2024-01-16T07:02:51;88500.97;;;3.50;50.05
84696;BME280;74913;40.204;44.532;2024-01-16T07:05:17;88506.03;;;3.48;49.79
84696;BME280;74913;40.204;44.532;2024-01-16T07:07:42;88513.34;;;3.53;49.82
84696;BME280;74913;40.204;44.532;2024-01-16T07:10:08;88501.66;;;3.65;49.98
84696;BME280;74913;40.204;44.532;2024-01-16T07:12:39;88506.88;;;3.74;49.70
84696;BME280;74913;40.204;44.532;2024-01-16T07:15:05;88499.72;;;3.80;49.78
84696;BME280;74913;40.204;44.532;2024-01-16T07:17:31;88506.81;;;3.88;49.79
84696;BME280;74913;40.204;44.532;2024-01-16T07:19:57;88505.38;;;3.87;49.52
84696;BME280;74913;40.204;44.532;2024-01-16T07:22:24;88504.25;;;3.94;49.53
84696;BME280;74913;40.204;44.532;2024-01-16T07:24:49;88505.06;;;4.00;49.45
84696;BME280;74913;40.204;44.532;2024-01-16T07:27:15;88493.50;;;4.03;49.32
84696;BME280;74913;40.204;44.532;2024-01-16T07:29:40;88495.84;;;4.16;49.33
84696;BME280;74913;40.204;44.532;2024-01-16T07:32:07;88485.63;;;4.14;48.75
84696;BME280;74913;40.204;44.532;2024-01-16T07:34:32;88501.00;;;4.25;48.91
84696;BME280;74913;40.204;44.532;2024-01-16T07:36:58;88487.50;;;4.28;48.66
84696;BME280;74913;40.204;44.532;2024-01-16T07:39:24;88484.63;;;4.32;47.87
84696;BME280;74913;40.204;44.532;2024-01-16T07:41:49;88485.38;;;4.32;48.24
84696;BME280;74913;40.204;44.532;2024-01-16T07:44:15;88476.91;;;4.34;48.40
84696;BME280;74913;40.204;44.532;2024-01-16T07:46:43;88473.97;;;4.32;48.10
84696;BME280;74913;40.204;44.532;2024-01-16T07:49:09;88476.38;;;4.30;48.02
84696;BME280;74913;40.204;44.532;2024-01-16T07:51:35;88471.78;;;4.30;48.24
84696;BME280;74913;40.204;44.532;2024-01-16T07:54:09;88445.03;;;4.19;47.89
84696;BME280;74913;40.204;44.532;2024-01-16T07:56:36;88468.47;;;4.35;47.95
84696;BME280;74913;40.204;44.532;2024-01-16T07:59:02;88471.38;;;4.37;48.13
84696;BME280;74913;40.204;44.532;2024-01-16T08:01:28;88465.13;;;4.40;48.38
84696;BME280;74913;40.204;44.532;2024-01-16T08:03:54;88467.63;;;4.49;48.34
84696;BME280;74913;40.204;44.532;2024-01-16T08:06:20;88452.91;;;4.54;48.23
84696;BME280;74913;40.204;44.532;2024-01-16T08:08:47;88448.84;;;4.59;48.10
84696;BME280;74913;40.204;44.532;2024-01-16T08:11:12;88447.16;;;4.61;48.38
84696;BME280;74913;40.204;44.532;2024-01-16T08:13:38;88457.13;;;4.61;48.16
84696;BME280;74913;40.204;44.532;2024-01-16T08:16:04;88450.97;;;4.54;47.94
84696;BME280;74913;40.204;44.532;2024-01-16T08:18:30;88451.66;;;4.49;47.87
84696;BME280;74913;40.204;44.532;2024-01-16T08:20:57;88444.59;;;4.46;48.30
84696;BME280;74913;40.204;44.532;2024-01-16T08:23:23;88444.34;;;4.44;48.09
84696;BME280;74913;40.204;44.532;2024-01-16T08:25:48;88447.41;;;4.37;48.45
84696;BME280;74913;40.204;44.532;2024-01-16T08:28:14;88441.53;;;4.33;48.76
84696;BME280;74913;40.204;44.532;2024-01-16T08:30:40;88437.38;;;4.27;49.04
84696;BME280;74913;40.204;44.532;2024-01-16T08:33:06;88425.19;;;4.20;49.00
84696;BME280;74913;40.204;44.532;2024-01-16T08:35:32;88420.81;;;4.17;49.35
84696;BME280;74913;40.204;44.532;2024-01-16T08:37:58;88424.13;;;4.12;49.25
84696;BME280;74913;40.204;44.532;2024-01-16T08:40:24;88422.66;;;4.11;49.63
84696;BME280;74913;40.204;44.532;2024-01-16T08:42:50;88401.03;;;4.04;50.12
84696;BME280;74913;40.204;44.532;2024-01-16T08:45:21;88399.50;;;4.17;49.82
84696;BME280;74913;40.204;44.532;2024-01-16T08:47:46;88404.66;;;4.26;49.63
84696;BME280;74913;40.204;44.532;2024-01-16T08:50:12;88405.72;;;4.34;49.61
84696;BME280;74913;40.204;44.532;2024-01-16T08:52:38;88388.56;;;4.35;49.23
84696;BME280;74913;40.204;44.532;2024-01-16T08:55:04;88396.91;;;4.48;49.45
84696;BME280;74913;40.204;44.532;2024-01-16T08:57:30;88389.91;;;4.51;49.41
84696;BME280;74913;40.204;44.532;2024-01-16T08:59:55;88396.44;;;4.50;49.50
84696;BME280;74913;40.204;44.532;2024-01-16T09:02:21;88379.06;;;4.54;49.32
84696;BME280;74913;40.204;44.532;2024-01-16T09:04:47;88375.50;;;4.63;49.64
84696;BME280;74913;40.204;44.532;2024-01-16T09:07:16;88377.69;;;4.65;49.33
84696;BME280;74913;40.204;44.532;2024-01-16T09:09:42;88370.19;;;4.69;49.71
84696;BME280;74913;40.204;44.532;2024-01-16T09:12:11;88375.34;;;4.72;49.46
84696;BME280;74913;40.204;44.532;2024-01-16T09:14:37;88381.16;;;4.76;49.72
84696;BME280;74913;40.204;44.532;2024-01-16T09:17:03;88374.34;;;4.70;49.68
84696;BME280;74913;40.204;44.532;2024-01-16T09:19:29;88359.28;;;4.67;49.50
84696;BME280;74913;40.204;44.532;2024-01-16T09:21:55;88375.19;;;4.56;49.37
84696;BME280;74913;40.204;44.532;2024-01-16T09:24:21;88374.56;;;4.40;50.08
84696;BME280;74913;40.204;44.532;2024-01-16T09:26:47;88356.31;;;4.33;50.08
84696;BME280;74913;40.204;44.532;2024-01-16T09:29:13;88377.69;;;4.39;50.29
84696;BME280;74913;40.204;44.532;2024-01-16T09:31:40;88377.50;;;4.42;49.91
84696;BME280;74913;40.204;44.532;2024-01-16T09:34:06;88354.69;;;4.41;50.22
84696;BME280;74913;40.204;44.532;2024-01-16T09:36:32;88343.97;;;4.30;49.88
84696;BME280;74913;40.204;44.532;2024-01-16T09:39:02;88345.72;;;4.39;50.12
84696;BME280;74913;40.204;44.532;2024-01-16T09:41:28;88355.13;;;4.34;50.05
84696;BME280;74913;40.204;44.532;2024-01-16T09:43:53;88344.47;;;4.34;50.03
84696;BME280;74913;40.204;44.532;2024-01-16T09:46:22;88332.47;;;4.44;49.89
84696;BME280;74913;40.204;44.532;2024-01-16T09:48:50;88306.94;;;4.32;50.14
84696;BME280;74913;40.204;44.532;2024-01-16T09:51:19;88327.25;;;4.56;50.28
84696;BME280;74913;40.204;44.532;2024-01-16T09:53:45;88318.59;;;4.66;50.11
84696;BME280;74913;40.204;44.532;2024-01-16T09:56:14;88319.38;;;4.72;49.81
84696;BME280;74913;40.204;44.532;2024-01-16T09:58:41;88320.59;;;4.77;50.13
84696;BME280;74913;40.204;44.532;2024-01-16T10:01:08;88313.91;;;4.87;49.70
84696;BME280;74913;40.204;44.532;2024-01-16T10:03:35;88314.72;;;4.98;49.99
84696;BME280;74913;40.204;44.532;2024-01-16T10:06:07;88309.94;;;5.08;49.70
84696;BME280;74913;40.204;44.532;2024-01-16T10:08:33;88306.81;;;5.15;49.70
84696;BME280;74913;40.204;44.532;2024-01-16T10:10:59;88285.03;;;5.22;49.19
84696;BME280;74913;40.204;44.532;2024-01-16T10:13:26;88273.91;;;5.29;49.58
84696;BME280;74913;40.204;44.532;2024-01-16T10:15:52;88273.19;;;5.23;49.08
84696;BME280;74913;40.204;44.532;2024-01-16T10:18:26;88269.97;;;5.19;49.11
84696;BME280;74913;40.204;44.532;2024-01-16T10:20:52;88265.88;;;5.18;49.55
84696;BME280;74913;40.204;44.532;2024-01-16T10:23:32;88270.22;;;5.21;49.30
84696;BME280;74913;40.204;44.532;2024-01-16T10:26:10;88270.22;;;5.21;49.12
84696;BME280;74913;40.204;44.532;2024-01-16T10:28:37;88271.69;;;5.22;48.90
84696;BME280;74913;40.204;44.532;2024-01-16T10:31:08;88247.22;;;5.18;49.05
84696;BME280;74913;40.204;44.532;2024-01-16T10:33:34;88236.38;;;5.44;48.87
84696;BME280;74913;40.204;44.532;2024-01-16T10:36:13;88237.09;;;5.39;49.04
84696;BME280;74913;40.204;44.532;2024-01-16T10:38:41;88249.44;;;5.36;49.03
84696;BME280;74913;40.204;44.532;2024-01-16T10:41:11;88239.78;;;5.44;48.53
84696;BME280;74913;40.204;44.532;2024-01-16T10:43:37;88227.50;;;5.63;48.59
84696;BME280;74913;40.204;44.532;2024-01-16T10:46:07;88227.59;;;5.86;48.60
84696;BME280;74913;40.204;44.532;2024-01-16T10:48:34;88226.38;;;5.92;47.90
84696;BME280;74913;40.204;44.532;2024-01-16T10:51:01;88226.63;;;6.00;48.56
84696;BME280;74913;40.204;44.532;2024-01-16T10:53:32;88230.28;;;6.08;47.99
84696;BME280;74913;40.204;44.532;2024-01-16T10:56:00;88234.69;;;6.11;47.73
84696;BME280;74913;40.204;44.532;2024-01-16T10:58:26;88232.47;;;6.15;47.57
84696;BME280;74913;40.204;44.532;2024-01-16T11:00:53;88220.09;;;6.17;47.51
84696;BME280;74913;40.204;44.532;2024-01-16T11:03:35;88197.53;;;6.13;47.24
84696;BME280;74913;40.204;44.532;2024-01-16T11:06:06;88221.31;;;6.27;47.45
84696;BME280;74913;40.204;44.532;2024-01-16T11:08:35;88220.84;;;6.34;47.53
84696;BME280;74913;40.204;44.532;2024-01-16T11:11:02;88226.19;;;6.40;47.57
84696;BME280;74913;40.204;44.532;2024-01-16T11:13:33;88203.59;;;6.30;47.77
84696;BME280;74913;40.204;44.532;2024-01-16T11:15:59;88227.66;;;6.41;47.15
84696;BME280;74913;40.204;44.532;2024-01-16T11:18:26;88221.06;;;6.36;47.52
84696;BME280;74913;40.204;44.532;2024-01-16T11:20:53;88223.78;;;6.31;47.38
84696;BME280;74913;40.204;44.532;2024-01-16T11:23:20;88222.06;;;6.22;47.76
84696;BME280;74913;40.204;44.532;2024-01-16T11:25:45;88224.72;;;6.17;47.59
84696;BME280;74913;40.204;44.532;2024-01-16T11:28:13;88212.81;;;6.12;47.50
84696;BME280;74913;40.204;44.532;2024-01-16T11:30:39;88212.31;;;6.03;47.76
84696;BME280;74913;40.204;44.532;2024-01-16T11:33:06;88217.41;;;6.01;47.53
84696;BME280;74913;40.204;44.532;2024-01-16T11:35:51;88217.88;;;5.88;47.69
84696;BME280;74913;40.204;44.532;2024-01-16T11:38:18;88218.34;;;5.87;47.43
84696;BME280;74913;40.204;44.532;2024-01-16T11:40:45;88220.25;;;5.80;47.77
84696;BME280;74913;40.204;44.532;2024-01-16T11:46:01;88231.84;;;5.66;48.21
84696;BME280;74913;40.204;44.532;2024-01-16T11:48:27;88233.56;;;5.58;48.11
84696;BME280;74913;40.204;44.532;2024-01-16T11:50:53;88234.97;;;5.54;48.42
84696;BME280;74913;40.204;44.532;2024-01-16T11:53:31;88236.94;;;5.53;47.92
84696;BME280;74913;40.204;44.532;2024-01-16T11:58:48;88238.34;;;5.43;47.93
84696;BME280;74913;40.204;44.532;2024-01-16T12:01:17;88253.81;;;5.34;48.00
84696;BME280;74913;40.204;44.532;2024-01-16T12:03:45;88230.22;;;5.21;48.16
84696;BME280;74913;40.204;44.532;2024-01-16T12:06:10;88236.03;;;5.14;48.07
84696;BME280;74913;40.204;44.532;2024-01-16T12:08:36;88242.31;;;5.11;47.90
84696;BME280;74913;40.204;44.532;2024-01-16T12:11:02;88237.41;;;5.04;48.75
84696;BME280;74913;40.204;44.532;2024-01-16T12:13:28;88246.69;;;5.08;48.50
84696;BME280;74913;40.204;44.532;2024-01-16T12:16:03;88235.53;;;5.10;48.79
84696;BME280;74913;40.204;44.532;2024-01-16T12:18:29;88254.88;;;5.05;48.73
84696;BME280;74913;40.204;44.532;2024-01-16T12:20:55;88243.97;;;5.03;48.54
84696;BME280;74913;40.204;44.532;2024-01-16T12:23:21;88234.28;;;5.05;48.56
84696;BME280;74913;40.204;44.532;2024-01-16T12:25:52;88246.13;;;4.99;47.97
84696;BME280;74913;40.204;44.532;2024-01-16T12:28:20;88250.47;;;4.96;48.49
84696;BME280;74913;40.204;44.532;2024-01-16T12:30:50;88225.75;;;4.96;48.27
84696;BME280;74913;40.204;44.532;2024-01-16T12:33:16;88234.22;;;4.94;48.84
84696;BME280;74913;40.204;44.532;2024-01-16T12:35:46;88220.97;;;4.69;48.59
84696;BME280;74913;40.204;44.532;2024-01-16T12:38:13;88242.63;;;4.82;48.82
84696;BME280;74913;40.204;44.532;2024-01-16T12:40:47;88241.16;;;4.75;48.96
84696;BME280;74913;40.204;44.532;2024-01-16T12:43:16;88254.47;;;4.75;48.79
84696;BME280;74913;40.204;44.532;2024-01-16T12:45:42;88246.44;;;4.70;49.05
84696;BME280;74913;40.204;44.532;2024-01-16T12:48:10;88246.19;;;4.68;48.85
84696;BME280;74913;40.204;44.532;2024-01-16T12:50:36;88242.03;;;4.67;49.08
84696;BME280;74913;40.204;44.532;2024-01-16T12:55:35;88244.66;;;4.61;49.50
84696;BME280;74913;40.204;44.532;2024-01-16T12:58:20;88250.72;;;4.62;49.70
84696;BME280;74913;40.204;44.532;2024-01-16T13:00:47;88257.22;;;4.55;49.18
84696;BME280;74913;40.204;44.532;2024-01-16T13:03:16;88247.53;;;4.52;49.68
84696;BME280;74913;40.204;44.532;2024-01-16T13:05:43;88247.72;;;4.48;49.45